sensor_id;sensor_type;location;lat;lon;timestamp;pressure;altitude;pressure_sealevel;temperature;humidity
29461;BME280;16428;47.836;35.106;2023-05-29T00:00:52;101076.53;;;18.51;100.00
29461;BME280;16428;47.836;35.106;2023-05-29T00:03:19;101076.94;;;18.61;100.00
29461;BME280;16428;47.836;35.106;2023-05-29T00:05:46;101070.66;;;18.54;100.00
29461;BME280;16428;47.836;35.106;2023-05-29T00:08:14;101078.63;;;18.56;100.00
29461;BME280;16428;47.836;35.106;2023-05-29T00:10:42;101067.31;;;18.59;100.00
29461;BME280;16428;47.836;35.106;2023-05-29T00:13:10;101065.84;;;18.56;100.00
29461;BME280;16428;47.836;35.106;2023-05-29T00:15:38;101074.44;;;18.53;100.00
29461;BME280;16428;47.836;35.106;2023-05-29T00:18:05;101071.56;;;18.48;100.00
29461;BME280;16428;47.836;35.106;2023-05-29T00:20:32;101073.59;;;18.53;100.00
29461;BME280;16428;47.836;35.106;2023-05-29T00:23:01;101069.84;;;18.54;100.00
29461;BME280;16428;47.836;35.106;2023-05-29T00:25:33;101064.19;;;18.55;100.00
29461;BME280;16428;47.836;35.106;2023-05-29T00:28:00;101065.63;;;18.58;100.00
29461;BME280;16428;47.836;35.106;2023-05-29T00:30:27;101064.81;;;18.51;100.00
29461;BME280;16428;47.836;35.106;2023-05-29T00:32:54;101060.84;;;18.60;100.00
29461;BME280;16428;47.836;35.106;2023-05-29T00:35:22;101054.56;;;18.59;100.00
29461;BME280;16428;47.836;35.106;2023-05-29T00:37:49;101063.56;;;18.60;100.00
29461;BME280;16428;47.836;35.106;2023-05-29T00:40:16;101062.91;;;18.58;100.00
29461;BME280;16428;47.836;35.106;2023-05-29T00:42:43;101071.00;;;18.71;100.00
29461;BME280;16428;47.836;35.106;2023-05-29T00:45:10;101064.28;;;18.74;100.00
29461;BME280;16428;47.836;35.106;2023-05-29T00:47:37;101066.09;;;18.80;100.00
29461;BME280;16428;47.836;35.106;2023-05-29T00:50:05;101063.66;;;18.72;100.00
29461;BME280;16428;47.836;35.106;2023-05-29T00:52:33;101067.84;;;18.74;100.00
29461;BME280;16428;47.836;35.106;2023-05-29T00:55:00;101067.88;;;18.68;100.00
29461;BME280;16428;47.836;35.106;2023-05-29T00:57:30;101070.19;;;18.64;100.00
29461;BME280;16428;47.836;35.106;2023-05-29T00:59:58;101079.78;;;18.73;100.00
29461;BME280;16428;47.836;35.106;2023-05-29T01:02:27;101078.09;;;18.72;100.00
29461;BME280;16428;47.836;35.106;2023-05-29T01:04:57;101081.91;;;18.65;100.00
29461;BME280;16428;47.836;35.106;2023-05-29T01:07:24;101070.59;;;18.68;100.00
29461;BME280;16428;47.836;35.106;2023-05-29T01:09:51;101078.63;;;18.56;100.00
29461;BME280;16428;47.836;35.106;2023-05-29T01:12:41;101078.22;;;18.59;100.00
29461;BME280;16428;47.836;35.106;2023-05-29T01:21:06;101072.38;;;18.49;100.00
29461;BME280;16428;47.836;35.106;2023-05-29T01:24:02;101066.13;;;18.48;100.00
29461;BME280;16428;47.836;35.106;2023-05-29T01:29:11;101062.09;;;18.51;100.00
29461;BME280;16428;47.836;35.106;2023-05-29T01:31:42;101064.50;;;18.41;100.00
29461;BME280;16428;47.836;35.106;2023-05-29T01:34:10;101062.81;;;18.40;100.00
29461;BME280;16428;47.836;35.106;2023-05-29T01:36:37;101065.09;;;18.43;100.00
29461;BME280;16428;47.836;35.106;2023-05-29T01:39:05;101070.88;;;18.59;100.00
29461;BME280;16428;47.836;35.106;2023-05-29T01:41:33;101066.69;;;18.57;100.00
29461;BME280;16428;47.836;35.106;2023-05-29T01:44:05;101059.88;;;18.41;100.00
29461;BME280;16428;47.836;35.106;2023-05-29T01:46:37;101064.78;;;18.57;100.00
29461;BME280;16428;47.836;35.106;2023-05-29T01:49:05;101070.66;;;18.61;100.00
29461;BME280;16428;47.836;35.106;2023-05-29T01:51:34;101071.59;;;18.73;100.00
29461;BME280;16428;47.836;35.106;2023-05-29T01:54:03;101075.56;;;18.77;100.00
29461;BME280;16428;47.836;35.106;2023-05-29T01:56:31;101081.44;;;18.74;100.00
29461;BME280;16428;47.836;35.106;2023-05-29T01:59:00;101084.56;;;18.78;100.00
29461;BME280;16428;47.836;35.106;2023-05-29T02:01:29;101085.31;;;18.85;100.00
29461;BME280;16428;47.836;35.106;2023-05-29T02:03:56;101084.44;;;18.91;100.00
29461;BME280;16428;47.836;35.106;2023-05-29T02:06:24;101086.44;;;18.77;100.00
29461;BME280;16428;47.836;35.106;2023-05-29T02:08:52;101084.16;;;18.74;100.00
29461;BME280;16428;47.836;35.106;2023-05-29T02:11:19;101086.44;;;18.77;100.00
29461;BME280;16428;47.836;35.106;2023-05-29T02:13:47;101084.25;;;18.86;100.00
29461;BME280;16428;47.836;35.106;2023-05-29T02:16:14;101083.00;;;18.88;100.00
29461;BME280;16428;47.836;35.106;2023-05-29T02:18:42;101092.22;;;18.87;100.00
29461;BME280;16428;47.836;35.106;2023-05-29T02:21:10;101097.69;;;18.81;100.00
29461;BME280;16428;47.836;35.106;2023-05-29T02:23:38;101097.78;;;18.74;100.00
29461;BME280;16428;47.836;35.106;2023-05-29T02:26:06;101102.94;;;18.82;100.00
29461;BME280;16428;47.836;35.106;2023-05-29T02:28:33;101106.09;;;18.79;100.00
29461;BME280;16428;47.836;35.106;2023-05-29T02:31:02;101103.97;;;18.81;100.00
29461;BME280;16428;47.836;35.106;2023-05-29T02:33:29;101103.72;;;18.89;100.00
29461;BME280;16428;47.836;35.106;2023-05-29T02:35:57;101100.59;;;18.86;100.00
29461;BME280;16428;47.836;35.106;2023-05-29T02:38:24;101109.59;;;18.86;100.00
29461;BME280;16428;47.836;35.106;2023-05-29T02:40:51;101112.72;;;18.90;100.00
29461;BME280;16428;47.836;35.106;2023-05-29T02:43:21;101104.38;;;18.85;100.00
29461;BME280;16428;47.836;35.106;2023-05-29T02:45:48;101112.28;;;18.93;100.00
29461;BME280;16428;47.836;35.106;2023-05-29T02:48:16;101114.00;;;18.87;100.00
29461;BME280;16428;47.836;35.106;2023-05-29T02:50:44;101122.78;;;18.89;100.00
29461;BME280;16428;47.836;35.106;2023-05-29T02:53:11;101116.88;;;18.92;100.00
29461;BME280;16428;47.836;35.106;2023-05-29T02:55:38;101112.94;;;18.88;100.00
29461;BME280;16428;47.836;35.106;2023-05-29T02:58:06;101114.59;;;18.89;100.00
29461;BME280;16428;47.836;35.106;2023-05-29T03:00:36;101122.91;;;18.94;100.00
29461;BME280;16428;47.836;35.106;2023-05-29T03:03:03;101124.88;;;18.87;100.00
29461;BME280;16428;47.836;35.106;2023-05-29T03:05:31;101119.88;;;18.84;100.00
29461;BME280;16428;47.836;35.106;2023-05-29T03:07:59;101130.22;;;19.01;100.00
29461;BME280;16428;47.836;35.106;2023-05-29T03:10:26;101128.16;;;18.96;100.00
29461;BME280;16428;47.836;35.106;2023-05-29T03:12:53;101119.00;;;18.90;100.00
29461;BME280;16428;47.836;35.106;2023-05-29T03:15:21;101125.63;;;18.94;100.00
29461;BME280;16428;47.836;35.106;2023-05-29T03:17:48;101128.53;;;19.00;100.00
29461;BME280;16428;47.836;35.106;2023-05-29T03:20:15;101119.44;;;18.87;100.00
29461;BME280;16428;47.836;35.106;2023-05-29T03:22:43;101120.66;;;18.91;100.00
29461;BME280;16428;47.836;35.106;2023-05-29T03:25:10;101119.03;;;18.84;100.00
29461;BME280;16428;47.836;35.106;2023-05-29T03:27:37;101125.19;;;18.97;100.00
29461;BME280;16428;47.836;35.106;2023-05-29T03:30:05;101117.03;;;18.97;100.00
29461;BME280;16428;47.836;35.106;2023-05-29T03:32:33;101121.53;;;18.85;100.00
29461;BME280;16428;47.836;35.106;2023-05-29T03:35:00;101110.25;;;18.82;100.00
29461;BME280;16428;47.836;35.106;2023-05-29T03:37:28;101114.00;;;18.87;100.00
29461;BME280;16428;47.836;35.106;2023-05-29T03:39:55;101119.75;;;18.97;100.00
29461;BME280;16428;47.836;35.106;2023-05-29T03:42:22;101113.94;;;18.94;100.00
29461;BME280;16428;47.836;35.106;2023-05-29T03:44:50;101119.25;;;18.82;100.00
29461;BME280;16428;47.836;35.106;2023-05-29T03:47:17;101106.22;;;18.91;100.00
29461;BME280;16428;47.836;35.106;2023-05-29T03:49:44;101113.88;;;19.01;100.00
29461;BME280;16428;47.836;35.106;2023-05-29T03:52:12;101114.75;;;18.94;100.00
29461;BME280;16428;47.836;35.106;2023-05-29T03:54:39;101116.66;;;18.94;100.00
29461;BME280;16428;47.836;35.106;2023-05-29T03:57:07;101122.66;;;19.03;100.00
29461;BME280;16428;47.836;35.106;2023-05-29T03:59:35;101117.31;;;18.89;100.00
29461;BME280;16428;47.836;35.106;2023-05-29T04:02:03;101125.31;;;18.84;100.00
29461;BME280;16428;47.836;35.106;2023-05-29T04:04:31;101126.72;;;18.93;100.00
29461;BME280;16428;47.836;35.106;2023-05-29T04:06:58;101130.22;;;19.01;100.00
29461;BME280;16428;47.836;35.106;2023-05-29T04:09:26;101126.00;;;19.05;100.00
29461;BME280;16428;47.836;35.106;2023-05-29T04:11:54;101132.66;;;19.09;100.00
29461;BME280;16428;47.836;35.106;2023-05-29T04:14:22;101133.44;;;19.16;100.00
29461;BME280;16428;47.836;35.106;2023-05-29T04:16:49;101136.44;;;19.08;100.00
29461;BME280;16428;47.836;35.106;2023-05-29T04:19:16;101135.16;;;19.10;100.00
29461;BME280;16428;47.836;35.106;2023-05-29T04:21:44;101141.59;;;19.16;100.00
29461;BME280;16428;47.836;35.106;2023-05-29T04:24:11;101135.50;;;19.20;100.00
29461;BME280;16428;47.836;35.106;2023-05-29T04:26:38;101128.78;;;19.23;100.00
29461;BME280;16428;47.836;35.106;2023-05-29T04:29:08;101134.34;;;19.28;100.00
29461;BME280;16428;47.836;35.106;2023-05-29T04:31:38;101136.50;;;19.44;100.00
29461;BME280;16428;47.836;35.106;2023-05-29T04:34:06;101128.69;;;19.54;100.00
29461;BME280;16428;47.836;35.106;2023-05-29T04:36:33;101147.28;;;19.57;100.00
29461;BME280;16428;47.836;35.106;2023-05-29T04:39:05;101144.19;;;19.72;100.00
29461;BME280;16428;47.836;35.106;2023-05-29T04:41:34;101146.72;;;19.74;100.00
29461;BME280;16428;47.836;35.106;2023-05-29T04:44:02;101152.94;;;19.81;100.00
29461;BME280;16428;47.836;35.106;2023-05-29T04:46:30;101150.03;;;19.76;100.00
29461;BME280;16428;47.836;35.106;2023-05-29T04:48:58;101145.50;;;19.88;100.00
29461;BME280;16428;47.836;35.106;2023-05-29T04:51:25;101139.53;;;19.79;100.00
29461;BME280;16428;47.836;35.106;2023-05-29T04:53:52;101138.16;;;19.88;100.00
29461;BME280;16428;47.836;35.106;2023-05-29T04:56:19;101149.16;;;20.00;100.00
29461;BME280;16428;47.836;35.106;2023-05-29T04:58:47;101149.81;;;19.95;100.00
29461;BME280;16428;47.836;35.106;2023-05-29T05:01:15;101147.78;;;19.91;100.00
29461;BME280;16428;47.836;35.106;2023-05-29T05:03:42;101137.78;;;19.85;100.00
29461;BME280;16428;47.836;35.106;2023-05-29T05:06:09;101141.25;;;19.92;100.00
29461;BME280;16428;47.836;35.106;2023-05-29T05:08:37;101145.47;;;20.06;100.00
29461;BME280;16428;47.836;35.106;2023-05-29T05:11:05;101151.09;;;20.11;100.00
29461;BME280;16428;47.836;35.106;2023-05-29T05:13:33;101147.69;;;20.16;100.00
29461;BME280;16428;47.836;35.106;2023-05-29T05:16:00;101146.69;;;20.10;100.00
29461;BME280;16428;47.836;35.106;2023-05-29T05:18:28;101142.59;;;20.19;100.00
29461;BME280;16428;47.836;35.106;2023-05-29T05:20:55;101141.06;;;20.23;100.00
29461;BME280;16428;47.836;35.106;2023-05-29T05:23:24;101148.03;;;20.38;100.00
29461;BME280;16428;47.836;35.106;2023-05-29T05:25:51;101147.25;;;20.49;100.00
29461;BME280;16428;47.836;35.106;2023-05-29T05:28:18;101139.34;;;20.59;100.00
29461;BME280;16428;47.836;35.106;2023-05-29T05:30:45;101135.72;;;20.77;100.00
29461;BME280;16428;47.836;35.106;2023-05-29T05:33:13;101145.00;;;20.87;100.00
29461;BME280;16428;47.836;35.106;2023-05-29T05:35:40;101145.38;;;21.02;100.00
29461;BME280;16428;47.836;35.106;2023-05-29T05:38:07;101147.28;;;21.14;100.00
29461;BME280;16428;47.836;35.106;2023-05-29T05:40:35;101155.41;;;21.20;100.00
29461;BME280;16428;47.836;35.106;2023-05-29T05:43:02;101154.47;;;21.38;100.00
29461;BME280;16428;47.836;35.106;2023-05-29T05:45:30;101140.81;;;21.50;100.00
29461;BME280;16428;47.836;35.106;2023-05-29T05:47:57;101147.56;;;21.47;100.00
29461;BME280;16428;47.836;35.106;2023-05-29T05:50:25;101146.97;;;21.57;100.00
29461;BME280;16428;47.836;35.106;2023-05-29T05:52:52;101157.44;;;21.60;100.00
29461;BME280;16428;47.836;35.106;2023-05-29T05:55:20;101162.28;;;21.69;100.00
29461;BME280;16428;47.836;35.106;2023-05-29T05:57:47;101164.78;;;21.83;100.00
29461;BME280;16428;47.836;35.106;2023-05-29T06:00:15;101165.13;;;21.74;100.00
29461;BME280;16428;47.836;35.106;2023-05-29T06:02:42;101163.81;;;21.77;100.00
29461;BME280;16428;47.836;35.106;2023-05-29T06:05:12;101162.50;;;22.03;100.00
29461;BME280;16428;47.836;35.106;2023-05-29T06:07:39;101152.25;;;22.10;100.00
29461;BME280;16428;47.836;35.106;2023-05-29T06:10:07;101148.41;;;22.23;100.00
29461;BME280;16428;47.836;35.106;2023-05-29T06:12:35;101141.28;;;22.22;100.00
29461;BME280;16428;47.836;35.106;2023-05-29T06:15:02;101146.75;;;22.22;100.00
29461;BME280;16428;47.836;35.106;2023-05-29T06:17:31;101142.81;;;22.18;100.00
29461;BME280;16428;47.836;35.106;2023-05-29T06:19:58;101129.59;;;22.26;100.00
29461;BME280;16428;47.836;35.106;2023-05-29T06:22:26;101138.59;;;22.38;100.00
29461;BME280;16428;47.836;35.106;2023-05-29T06:24:53;101135.53;;;22.52;100.00
29461;BME280;16428;47.836;35.106;2023-05-29T06:27:20;101143.88;;;22.57;100.00
29461;BME280;16428;47.836;35.106;2023-05-29T06:29:50;101144.13;;;22.72;100.00
29461;BME280;16428;47.836;35.106;2023-05-29T06:32:17;101146.78;;;22.67;100.00
29461;BME280;16428;47.836;35.106;2023-05-29T06:34:44;101153.28;;;22.77;99.89
29461;BME280;16428;47.836;35.106;2023-05-29T06:37:11;101155.81;;;22.96;100.00
29461;BME280;16428;47.836;35.106;2023-05-29T06:39:39;101157.22;;;23.15;100.00
29461;BME280;16428;47.836;35.106;2023-05-29T06:42:08;101156.63;;;23.30;100.00
29461;BME280;16428;47.836;35.106;2023-05-29T06:44:36;101155.69;;;23.41;100.00
29461;BME280;16428;47.836;35.106;2023-05-29T06:47:05;101166.16;;;23.44;98.95
29461;BME280;16428;47.836;35.106;2023-05-29T06:49:33;101165.34;;;23.60;98.46
29461;BME280;16428;47.836;35.106;2023-05-29T06:52:00;101163.28;;;23.67;99.62
29461;BME280;16428;47.836;35.106;2023-05-29T06:54:27;101163.47;;;23.82;99.75
29461;BME280;16428;47.836;35.106;2023-05-29T06:56:54;101160.75;;;23.82;97.64
29461;BME280;16428;47.836;35.106;2023-05-29T06:59:37;101160.38;;;23.96;99.46
29461;BME280;16428;47.836;35.106;2023-05-29T07:02:04;101165.91;;;24.01;98.28
29461;BME280;16428;47.836;35.106;2023-05-29T07:04:33;101165.84;;;23.96;98.12
29461;BME280;16428;47.836;35.106;2023-05-29T07:07:00;101167.69;;;23.90;98.67
29461;BME280;16428;47.836;35.106;2023-05-29T07:09:27;101173.88;;;23.80;98.94
29461;BME280;16428;47.836;35.106;2023-05-29T07:11:54;101166.16;;;23.99;99.56
29461;BME280;16428;47.836;35.106;2023-05-29T07:14:22;101171.03;;;24.36;97.99
29461;BME280;16428;47.836;35.106;2023-05-29T07:16:50;101171.66;;;24.43;99.42
29461;BME280;16428;47.836;35.106;2023-05-29T07:19:17;101170.28;;;24.45;97.91
29461;BME280;16428;47.836;35.106;2023-05-29T07:21:47;101162.53;;;24.64;96.18
29461;BME280;16428;47.836;35.106;2023-05-29T07:24:15;101167.59;;;24.72;96.61
29461;BME280;16428;47.836;35.106;2023-05-29T07:26:42;101159.59;;;24.71;95.71
29461;BME280;16428;47.836;35.106;2023-05-29T07:29:09;101160.94;;;24.68;95.55
29461;BME280;16428;47.836;35.106;2023-05-29T07:31:36;101165.13;;;24.76;95.19
29461;BME280;16428;47.836;35.106;2023-05-29T07:34:07;101162.75;;;24.84;93.77
29461;BME280;16428;47.836;35.106;2023-05-29T07:36:36;101155.28;;;24.80;95.83
29461;BME280;16428;47.836;35.106;2023-05-29T07:39:03;101158.00;;;24.75;96.40
29461;BME280;16428;47.836;35.106;2023-05-29T07:41:32;101160.50;;;24.81;95.43
29461;BME280;16428;47.836;35.106;2023-05-29T07:43:59;101163.06;;;24.88;95.54
29461;BME280;16428;47.836;35.106;2023-05-29T07:46:27;101153.78;;;24.94;94.87
29461;BME280;16428;47.836;35.106;2023-05-29T07:48:54;101157.50;;;24.83;97.86
29461;BME280;16428;47.836;35.106;2023-05-29T07:51:21;101147.41;;;24.88;95.45
29461;BME280;16428;47.836;35.106;2023-05-29T07:53:49;101148.41;;;25.09;96.64
29461;BME280;16428;47.836;35.106;2023-05-29T07:56:16;101136.91;;;25.12;96.99
29461;BME280;16428;47.836;35.106;2023-05-29T07:58:43;101153.41;;;25.12;94.17
29461;BME280;16428;47.836;35.106;2023-05-29T08:01:10;101145.75;;;25.19;91.45
29461;BME280;16428;47.836;35.106;2023-05-29T08:03:38;101141.47;;;25.39;90.95
29461;BME280;16428;47.836;35.106;2023-05-29T08:06:05;101138.09;;;25.27;91.19
29461;BME280;16428;47.836;35.106;2023-05-29T08:08:34;101139.09;;;25.52;90.41
29461;BME280;16428;47.836;35.106;2023-05-29T08:11:02;101130.38;;;25.23;90.65
29461;BME280;16428;47.836;35.106;2023-05-29T08:13:30;101135.16;;;25.01;93.40
29461;BME280;16428;47.836;35.106;2023-05-29T08:15:57;101132.44;;;25.06;92.46
29461;BME280;16428;47.836;35.106;2023-05-29T08:18:26;101137.56;;;25.30;91.30
29461;BME280;16428;47.836;35.106;2023-05-29T08:20:53;101132.66;;;25.37;92.51
29461;BME280;16428;47.836;35.106;2023-05-29T08:23:21;101136.13;;;25.59;90.37
29461;BME280;16428;47.836;35.106;2023-05-29T08:25:48;101140.09;;;25.83;90.61
29461;BME280;16428;47.836;35.106;2023-05-29T08:28:15;101128.06;;;25.95;86.60
29461;BME280;16428;47.836;35.106;2023-05-29T08:30:43;101120.41;;;26.07;87.74
29461;BME280;16428;47.836;35.106;2023-05-29T08:33:10;101122.63;;;26.15;88.07
29461;BME280;16428;47.836;35.106;2023-05-29T08:35:37;101127.56;;;26.08;86.28
29461;BME280;16428;47.836;35.106;2023-05-29T08:38:05;101125.94;;;26.12;84.75
29461;BME280;16428;47.836;35.106;2023-05-29T08:40:33;101129.66;;;25.85;87.91
29461;BME280;16428;47.836;35.106;2023-05-29T08:43:10;101124.63;;;25.67;87.79
29461;BME280;16428;47.836;35.106;2023-05-29T08:45:42;101121.78;;;26.04;86.68
29461;BME280;16428;47.836;35.106;2023-05-29T08:48:11;101120.47;;;26.27;85.01
29461;BME280;16428;47.836;35.106;2023-05-29T08:50:46;101099.59;;;26.51;85.36
29461;BME280;16428;47.836;35.106;2023-05-29T08:53:16;101096.84;;;26.51;87.00
29461;BME280;16428;47.836;35.106;2023-05-29T08:55:47;101101.28;;;26.73;84.55
29461;BME280;16428;47.836;35.106;2023-05-29T08:58:15;101094.66;;;26.89;82.94
29461;BME280;16428;47.836;35.106;2023-05-29T09:00:44;101092.50;;;27.01;83.80
29461;BME280;16428;47.836;35.106;2023-05-29T09:03:13;101089.19;;;26.99;81.96
29461;BME280;16428;47.836;35.106;2023-05-29T09:05:41;101077.84;;;27.16;80.43
29461;BME280;16428;47.836;35.106;2023-05-29T09:08:09;101075.94;;;26.96;85.98
29461;BME280;16428;47.836;35.106;2023-05-29T09:10:43;101066.56;;;26.82;84.45
29461;BME280;16428;47.836;35.106;2023-05-29T09:13:11;101062.41;;;26.59;87.80
29461;BME280;16428;47.836;35.106;2023-05-29T09:15:41;101071.50;;;26.44;87.13
29461;BME280;16428;47.836;35.106;2023-05-29T09:18:11;101059.38;;;26.40;85.81
29461;BME280;16428;47.836;35.106;2023-05-29T09:20:38;101066.28;;;26.63;84.38
29461;BME280;16428;47.836;35.106;2023-05-29T09:23:08;101053.88;;;26.71;82.91
29461;BME280;16428;47.836;35.106;2023-05-29T09:25:40;101056.06;;;26.48;84.30
29461;BME280;16428;47.836;35.106;2023-05-29T09:28:10;101056.63;;;26.35;85.11
29461;BME280;16428;47.836;35.106;2023-05-29T09:30:42;101058.53;;;26.45;84.51
29461;BME280;16428;47.836;35.106;2023-05-29T09:33:11;101052.19;;;26.29;85.76
29461;BME280;16428;47.836;35.106;2023-05-29T09:35:43;101063.50;;;26.33;85.19
29461;BME280;16428;47.836;35.106;2023-05-29T09:38:15;101059.94;;;26.37;84.35
29461;BME280;16428;47.836;35.106;2023-05-29T09:41:04;101061.59;;;26.38;86.23
29461;BME280;16428;47.836;35.106;2023-05-29T09:43:32;101056.88;;;26.28;84.42
29461;BME280;16428;47.836;35.106;2023-05-29T09:46:01;101060.94;;;26.16;83.38
29461;BME280;16428;47.836;35.106;2023-05-29T09:48:30;101054.31;;;25.97;84.95
29461;BME280;16428;47.836;35.106;2023-05-29T09:50:57;101061.66;;;25.76;88.00
29461;BME280;16428;47.836;35.106;2023-05-29T09:53:26;101061.97;;;25.84;86.79
29461;BME280;16428;47.836;35.106;2023-05-29T09:55:56;101051.25;;;25.98;85.07
29461;BME280;16428;47.836;35.106;2023-05-29T09:58:25;101049.13;;;26.20;85.64
29461;BME280;16428;47.836;35.106;2023-05-29T10:00:52;101043.34;;;26.22;87.31
29461;BME280;16428;47.836;35.106;2023-05-29T10:03:20;101041.72;;;26.26;86.77
29461;BME280;16428;47.836;35.106;2023-05-29T10:05:54;101049.19;;;26.61;85.48
29461;BME280;16428;47.836;35.106;2023-05-29T10:08:35;101052.75;;;27.07;84.14
29461;BME280;16428;47.836;35.106;2023-05-29T10:11:04;101046.06;;;27.39;80.50
29461;BME280;16428;47.836;35.106;2023-05-29T10:13:39;101045.47;;;27.57;81.91
29461;BME280;16428;47.836;35.106;2023-05-29T10:16:11;101040.44;;;27.74;78.82
29461;BME280;16428;47.836;35.106;2023-05-29T10:18:44;101036.44;;;27.31;81.21
29461;BME280;16428;47.836;35.106;2023-05-29T10:21:17;101042.84;;;27.11;81.42
29461;BME280;16428;47.836;35.106;2023-05-29T10:23:48;101044.47;;;26.92;83.14
29461;BME280;16428;47.836;35.106;2023-05-29T10:26:22;101040.59;;;27.23;82.92
29461;BME280;16428;47.836;35.106;2023-05-29T10:34:56;101034.44;;;27.57;79.76
29461;BME280;16428;47.836;35.106;2023-05-29T10:37:54;101022.16;;;27.83;81.46
29461;BME280;16428;47.836;35.106;2023-05-29T10:40:26;101016.72;;;28.22;78.11
29461;BME280;16428;47.836;35.106;2023-05-29T10:42:53;101020.66;;;28.50;76.16
29461;BME280;16428;47.836;35.106;2023-05-29T10:47:55;101015.84;;;28.27;77.30
29461;BME280;16428;47.836;35.106;2023-05-29T10:50:41;101012.59;;;28.20;75.44
29461;BME280;16428;47.836;35.106;2023-05-29T10:53:10;101012.56;;;28.25;75.52
29461;BME280;16428;47.836;35.106;2023-05-29T10:55:39;101005.81;;;28.41;74.98
29461;BME280;16428;47.836;35.106;2023-05-29T10:58:12;101013.63;;;28.29;76.38
29461;BME280;16428;47.836;35.106;2023-05-29T11:00:40;101003.47;;;28.14;77.01
29461;BME280;16428;47.836;35.106;2023-05-29T11:03:19;100996.09;;;28.05;77.89
29461;BME280;16428;47.836;35.106;2023-05-29T11:06:01;101004.78;;;28.27;75.44
29461;BME280;16428;47.836;35.106;2023-05-29T11:09:05;101002.09;;;28.12;76.91
29461;BME280;16428;47.836;35.106;2023-05-29T11:11:35;101002.06;;;27.78;77.78
29461;BME280;16428;47.836;35.106;2023-05-29T11:14:06;100987.81;;;27.60;78.86
29461;BME280;16428;47.836;35.106;2023-05-29T11:19:08;101000.31;;;27.22;79.87
29461;BME280;16428;47.836;35.106;2023-05-29T11:24:23;100986.38;;;27.68;77.94
29461;BME280;16428;47.836;35.106;2023-05-29T11:26:52;100979.66;;;27.84;77.34
29461;BME280;16428;47.836;35.106;2023-05-29T11:29:27;100983.50;;;27.88;76.69
29461;BME280;16428;47.836;35.106;2023-05-29T11:32:01;100976.84;;;27.94;76.65
29461;BME280;16428;47.836;35.106;2023-05-29T11:34:31;100970.59;;;27.79;75.00
29461;BME280;16428;47.836;35.106;2023-05-29T11:37:00;100974.25;;;27.54;77.25
29461;BME280;16428;47.836;35.106;2023-05-29T11:39:29;100969.72;;;27.24;81.01
29461;BME280;16428;47.836;35.106;2023-05-29T11:41:58;100964.94;;;27.45;78.21
29461;BME280;16428;47.836;35.106;2023-05-29T11:44:27;100964.06;;;27.54;77.93
29461;BME280;16428;47.836;35.106;2023-05-29T11:47:04;100956.09;;;27.48;81.09
29461;BME280;16428;47.836;35.106;2023-05-29T11:49:33;100955.06;;;27.34;79.81
29461;BME280;16428;47.836;35.106;2023-05-29T11:52:11;100961.34;;;27.49;75.09
29461;BME280;16428;47.836;35.106;2023-05-29T11:54:41;100947.00;;;27.47;74.20
29461;BME280;16428;47.836;35.106;2023-05-29T11:57:19;100947.22;;;27.61;76.79
29461;BME280;16428;47.836;35.106;2023-05-29T11:59:49;100944.63;;;27.80;76.79
29461;BME280;16428;47.836;35.106;2023-05-29T12:02:16;100948.16;;;27.85;76.86
29461;BME280;16428;47.836;35.106;2023-05-29T12:04:43;100939.44;;;27.73;77.01
29461;BME280;16428;47.836;35.106;2023-05-29T12:07:20;100932.00;;;27.69;73.95
29461;BME280;16428;47.836;35.106;2023-05-29T12:09:47;100936.88;;;28.26;74.22
29461;BME280;16428;47.836;35.106;2023-05-29T12:12:20;100941.88;;;28.19;75.76
29461;BME280;16428;47.836;35.106;2023-05-29T12:14:50;100930.41;;;28.35;75.11
29461;BME280;16428;47.836;35.106;2023-05-29T12:17:19;100924.31;;;28.67;71.50
29461;BME280;16428;47.836;35.106;2023-05-29T12:19:46;100928.66;;;29.02;69.15
29461;BME280;16428;47.836;35.106;2023-05-29T12:22:14;100928.13;;;29.19;66.71
29461;BME280;16428;47.836;35.106;2023-05-29T12:24:41;100918.00;;;29.33;67.97
29461;BME280;16428;47.836;35.106;2023-05-29T12:27:10;100911.25;;;29.45;65.86
29461;BME280;16428;47.836;35.106;2023-05-29T12:29:37;100910.72;;;29.43;66.01
29461;BME280;16428;47.836;35.106;2023-05-29T12:32:09;100914.75;;;29.69;67.43
29461;BME280;16428;47.836;35.106;2023-05-29T12:34:36;100916.09;;;29.90;63.94
29461;BME280;16428;47.836;35.106;2023-05-29T12:37:09;100918.28;;;30.26;63.77
29461;BME280;16428;47.836;35.106;2023-05-29T12:39:40;100930.50;;;30.57;60.81
29461;BME280;16428;47.836;35.106;2023-05-29T12:42:07;100927.28;;;30.69;60.46
29461;BME280;16428;47.836;35.106;2023-05-29T12:44:37;100916.50;;;30.81;60.22
29461;BME280;16428;47.836;35.106;2023-05-29T12:47:05;100903.97;;;30.84;58.93
29461;BME280;16428;47.836;35.106;2023-05-29T12:49:35;100899.88;;;30.49;61.65
29461;BME280;16428;47.836;35.106;2023-05-29T12:52:06;100909.13;;;30.12;63.47
29461;BME280;16428;47.836;35.106;2023-05-29T12:54:34;100894.91;;;29.81;62.77
29461;BME280;16428;47.836;35.106;2023-05-29T12:57:01;100895.19;;;29.47;63.86
29461;BME280;16428;47.836;35.106;2023-05-29T12:59:29;100901.09;;;29.16;63.66
29461;BME280;16428;47.836;35.106;2023-05-29T13:01:56;100903.41;;;28.85;65.74
29461;BME280;16428;47.836;35.106;2023-05-29T13:04:24;100897.69;;;28.48;67.17
29461;BME280;16428;47.836;35.106;2023-05-29T13:06:51;100902.06;;;28.25;69.81